sensor_id;sensor_type;location;lat;lon;timestamp;temperature;humidity
21184;DHT22;18176;49.502;11.754;2022-09-09T00:02:28;12.00;99.90
21184;DHT22;18176;49.502;11.754;2022-09-09T00:06:30;11.90;99.90
21184;DHT22;18176;49.502;11.754;2022-09-09T00:10:36;11.90;99.90
21184;DHT22;18176;49.502;11.754;2022-09-09T00:14:54;11.90;99.90
21184;DHT22;18176;49.502;11.754;2022-09-09T00:19:22;11.80;99.90
21184;DHT22;18176;49.502;11.754;2022-09-09T00:23:29;11.80;99.90
21184;DHT22;18176;49.502;11.754;2022-09-09T00:27:40;11.80;99.90
21184;DHT22;18176;49.502;11.754;2022-09-09T00:31:42;11.70;99.90
21184;DHT22;18176;49.502;11.754;2022-09-09T00:35:44;11.70;99.90
21184;DHT22;18176;49.502;11.754;2022-09-09T00:39:47;11.70;99.90
21184;DHT22;18176;49.502;11.754;2022-09-09T00:44:13;11.60;99.90
21184;DHT22;18176;49.502;11.754;2022-09-09T00:57:55;11.60;99.90
21184;DHT22;18176;49.502;11.754;2022-09-09T01:01:53;11.50;99.90
21184;DHT22;18176;49.502;11.754;2022-09-09T01:05:59;11.50;99.90
21184;DHT22;18176;49.502;11.754;2022-09-09T01:10:07;11.40;99.90
21184;DHT22;18176;49.502;11.754;2022-09-09T01:14:41;11.40;99.90
21184;DHT22;18176;49.502;11.754;2022-09-09T01:18:44;11.30;99.90
21184;DHT22;18176;49.502;11.754;2022-09-09T01:23:16;11.30;99.90
21184;DHT22;18176;49.502;11.754;2022-09-09T01:27:50;11.20;99.90
21184;DHT22;18176;49.502;11.754;2022-09-09T01:31:57;11.20;99.90
21184;DHT22;18176;49.502;11.754;2022-09-09T01:40:20;11.10;99.90
21184;DHT22;18176;49.502;11.754;2022-09-09T01:44:19;11.10;99.90
21184;DHT22;18176;49.502;11.754;2022-09-09T01:48:18;11.10;99.90
21184;DHT22;18176;49.502;11.754;2022-09-09T01:52:22;11.00;99.90
21184;DHT22;18176;49.502;11.754;2022-09-09T01:56:22;11.00;99.90
21184;DHT22;18176;49.502;11.754;2022-09-09T02:00:32;11.00;99.90
21184;DHT22;18176;49.502;11.754;2022-09-09T02:04:42;11.00;99.90
21184;DHT22;18176;49.502;11.754;2022-09-09T02:08:55;11.00;99.90
21184;DHT22;18176;49.502;11.754;2022-09-09T02:13:15;11.00;99.90
21184;DHT22;18176;49.502;11.754;2022-09-09T02:17:19;11.00;99.90
21184;DHT22;18176;49.502;11.754;2022-09-09T02:21:36;11.00;99.90
21184;DHT22;18176;49.502;11.754;2022-09-09T02:25:35;11.10;99.90
21184;DHT22;18176;49.502;11.754;2022-09-09T02:29:44;11.10;99.90
21184;DHT22;18176;49.502;11.754;2022-09-09T02:33:52;11.10;99.90
21184;DHT22;18176;49.502;11.754;2022-09-09T02:37:58;11.20;99.90
21184;DHT22;18176;49.502;11.754;2022-09-09T02:41:59;11.20;99.90
21184;DHT22;18176;49.502;11.754;2022-09-09T02:46:24;11.30;99.90
21184;DHT22;18176;49.502;11.754;2022-09-09T02:55:06;11.20;99.90
21184;DHT22;18176;49.502;11.754;2022-09-09T02:59:16;11.20;99.90
21184;DHT22;18176;49.502;11.754;2022-09-09T03:03:15;11.20;99.90
21184;DHT22;18176;49.502;11.754;2022-09-09T03:07:17;11.20;99.90
21184;DHT22;18176;49.502;11.754;2022-09-09T03:11:16;11.10;99.90
21184;DHT22;18176;49.502;11.754;2022-09-09T03:15:14;11.10;99.90
21184;DHT22;18176;49.502;11.754;2022-09-09T03:19:12;11.00;99.90
21184;DHT22;18176;49.502;11.754;2022-09-09T03:23:11;11.00;99.90
21184;DHT22;18176;49.502;11.754;2022-09-09T03:27:13;11.00;99.90
21184;DHT22;18176;49.502;11.754;2022-09-09T03:31:11;10.90;99.90
21184;DHT22;18176;49.502;11.754;2022-09-09T03:35:10;10.90;99.90
21184;DHT22;18176;49.502;11.754;2022-09-09T03:39:07;10.90;99.90
21184;DHT22;18176;49.502;11.754;2022-09-09T03:43:04;11.00;99.90
21184;DHT22;18176;49.502;11.754;2022-09-09T03:47:02;10.90;99.90
21184;DHT22;18176;49.502;11.754;2022-09-09T03:50:59;11.00;99.90
21184;DHT22;18176;49.502;11.754;2022-09-09T03:55:00;11.00;99.90
21184;DHT22;18176;49.502;11.754;2022-09-09T03:58:58;11.10;99.90
21184;DHT22;18176;49.502;11.754;2022-09-09T04:02:55;11.20;99.90
21184;DHT22;18176;49.502;11.754;2022-09-09T04:06:54;11.40;99.90
21184;DHT22;18176;49.502;11.754;2022-09-09T04:10:53;11.50;99.90
21184;DHT22;18176;49.502;11.754;2022-09-09T04:14:54;11.60;99.90
21184;DHT22;18176;49.502;11.754;2022-09-09T04:18:51;11.80;99.90
21184;DHT22;18176;49.502;11.754;2022-09-09T04:22:49;11.90;99.90
21184;DHT22;18176;49.502;11.754;2022-09-09T04:26:47;12.00;99.90
21184;DHT22;18176;49.502;11.754;2022-09-09T04:30:44;12.10;99.90
21184;DHT22;18176;49.502;11.754;2022-09-09T04:34:42;12.20;99.90
21184;DHT22;18176;49.502;11.754;2022-09-09T04:38:39;12.30;99.90
21184;DHT22;18176;49.502;11.754;2022-09-09T04:42:36;12.40;99.90
21184;DHT22;18176;49.502;11.754;2022-09-09T04:46:34;12.40;99.90
21184;DHT22;18176;49.502;11.754;2022-09-09T04:50:31;12.50;99.90
21184;DHT22;18176;49.502;11.754;2022-09-09T04:54:29;12.70;99.90
21184;DHT22;18176;49.502;11.754;2022-09-09T04:58:26;12.80;99.90
21184;DHT22;18176;49.502;11.754;2022-09-09T05:02:24;12.80;99.90
21184;DHT22;18176;49.502;11.754;2022-09-09T05:06:27;12.90;99.90
21184;DHT22;18176;49.502;11.754;2022-09-09T05:10:27;12.90;99.90
21184;DHT22;18176;49.502;11.754;2022-09-09T05:14:25;12.90;99.90
21184;DHT22;18176;49.502;11.754;2022-09-09T05:18:23;12.90;99.90
21184;DHT22;18176;49.502;11.754;2022-09-09T05:22:20;13.00;99.90
21184;DHT22;18176;49.502;11.754;2022-09-09T05:26:22;13.00;99.90
21184;DHT22;18176;49.502;11.754;2022-09-09T05:30:22;13.10;99.90
21184;DHT22;18176;49.502;11.754;2022-09-09T05:34:23;13.20;99.90
21184;DHT22;18176;49.502;11.754;2022-09-09T05:38:20;13.20;99.90
21184;DHT22;18176;49.502;11.754;2022-09-09T05:42:24;13.30;99.90
21184;DHT22;18176;49.502;11.754;2022-09-09T05:46:23;13.40;99.90
21184;DHT22;18176;49.502;11.754;2022-09-09T05:50:22;13.50;99.90
21184;DHT22;18176;49.502;11.754;2022-09-09T05:54:25;13.70;99.90
21184;DHT22;18176;49.502;11.754;2022-09-09T05:58:24;13.90;99.90
21184;DHT22;18176;49.502;11.754;2022-09-09T06:02:21;14.00;99.90
21184;DHT22;18176;49.502;11.754;2022-09-09T06:06:21;14.20;99.90
21184;DHT22;18176;49.502;11.754;2022-09-09T06:10:20;14.20;99.90
21184;DHT22;18176;49.502;11.754;2022-09-09T06:14:18;14.40;99.90
21184;DHT22;18176;49.502;11.754;2022-09-09T06:18:18;14.60;99.90
21184;DHT22;18176;49.502;11.754;2022-09-09T06:22:16;14.60;99.90
21184;DHT22;18176;49.502;11.754;2022-09-09T06:26:19;14.70;99.90
21184;DHT22;18176;49.502;11.754;2022-09-09T06:30:25;15.00;99.90
21184;DHT22;18176;49.502;11.754;2022-09-09T06:34:22;15.10;99.90
21184;DHT22;18176;49.502;11.754;2022-09-09T06:38:23;14.90;99.90
21184;DHT22;18176;49.502;11.754;2022-09-09T06:42:22;14.70;99.90
21184;DHT22;18176;49.502;11.754;2022-09-09T06:46:29;14.60;99.90
21184;DHT22;18176;49.502;11.754;2022-09-09T06:50:30;14.50;99.90
21184;DHT22;18176;49.502;11.754;2022-09-09T06:54:27;14.60;99.90
21184;DHT22;18176;49.502;11.754;2022-09-09T06:58:25;14.80;99.90
21184;DHT22;18176;49.502;11.754;2022-09-09T07:02:24;14.90;99.90
21184;DHT22;18176;49.502;11.754;2022-09-09T07:06:24;15.20;99.90
21184;DHT22;18176;49.502;11.754;2022-09-09T07:10:23;15.40;99.90
21184;DHT22;18176;49.502;11.754;2022-09-09T07:14:20;15.70;99.90
21184;DHT22;18176;49.502;11.754;2022-09-09T07:18:28;15.90;99.90
21184;DHT22;18176;49.502;11.754;2022-09-09T07:22:27;15.90;99.90
21184;DHT22;18176;49.502;11.754;2022-09-09T07:26:27;15.70;99.90
21184;DHT22;18176;49.502;11.754;2022-09-09T07:30:28;15.50;99.90
21184;DHT22;18176;49.502;11.754;2022-09-09T07:34:27;15.30;99.90
21184;DHT22;18176;49.502;11.754;2022-09-09T07:38:26;15.30;99.90
21184;DHT22;18176;49.502;11.754;2022-09-09T07:42:24;15.30;99.90
21184;DHT22;18176;49.502;11.754;2022-09-09T07:46:24;15.40;99.90
21184;DHT22;18176;49.502;11.754;2022-09-09T07:50:23;15.40;99.90
21184;DHT22;18176;49.502;11.754;2022-09-09T07:54:21;15.40;99.90
21184;DHT22;18176;49.502;11.754;2022-09-09T07:58:21;15.40;99.90
21184;DHT22;18176;49.502;11.754;2022-09-09T08:02:19;15.30;99.90
21184;DHT22;18176;49.502;11.754;2022-09-09T08:06:16;15.30;99.90
21184;DHT22;18176;49.502;11.754;2022-09-09T08:10:13;15.20;99.90
21184;DHT22;18176;49.502;11.754;2022-09-09T08:14:14;15.20;99.90
21184;DHT22;18176;49.502;11.754;2022-09-09T08:18:11;15.10;99.90
21184;DHT22;18176;49.502;11.754;2022-09-09T08:22:08;15.10;99.90
21184;DHT22;18176;49.502;11.754;2022-09-09T08:26:12;15.30;99.90
21184;DHT22;18176;49.502;11.754;2022-09-09T08:30:11;15.60;99.90
21184;DHT22;18176;49.502;11.754;2022-09-09T08:34:10;15.80;99.90
21184;DHT22;18176;49.502;11.754;2022-09-09T08:38:07;16.00;99.90
21184;DHT22;18176;49.502;11.754;2022-09-09T08:42:32;16.30;99.90
21184;DHT22;18176;49.502;11.754;2022-09-09T08:51:03;16.70;99.90
21184;DHT22;18176;49.502;11.754;2022-09-09T08:55:26;17.40;99.90
21184;DHT22;18176;49.502;11.754;2022-09-09T08:59:44;18.10;99.90
21184;DHT22;18176;49.502;11.754;2022-09-09T09:04:07;18.40;99.90
21184;DHT22;18176;49.502;11.754;2022-09-09T09:12:23;19.10;99.90
21184;DHT22;18176;49.502;11.754;2022-09-09T09:16:34;19.30;99.90
21184;DHT22;18176;49.502;11.754;2022-09-09T09:21:14;19.50;99.90
21184;DHT22;18176;49.502;11.754;2022-09-09T09:25:27;19.90;99.90
21184;DHT22;18176;49.502;11.754;2022-09-09T09:29:31;19.90;99.90
21184;DHT22;18176;49.502;11.754;2022-09-09T09:37:40;19.80;99.90
21184;DHT22;18176;49.502;11.754;2022-09-09T09:42:10;20.30;99.90
21184;DHT22;18176;49.502;11.754;2022-09-09T09:46:21;20.80;99.90
21184;DHT22;18176;49.502;11.754;2022-09-09T09:50:30;21.20;99.90
21184;DHT22;18176;49.502;11.754;2022-09-09T09:54:31;21.90;99.90
21184;DHT22;18176;49.502;11.754;2022-09-09T09:58:53;22.80;99.90
21184;DHT22;18176;49.502;11.754;2022-09-09T10:02:59;23.20;99.90
21184;DHT22;18176;49.502;11.754;2022-09-09T10:07:10;23.20;99.90
21184;DHT22;18176;49.502;11.754;2022-09-09T10:15:31;23.80;99.90
21184;DHT22;18176;49.502;11.754;2022-09-09T10:19:37;24.20;99.90
21184;DHT22;18176;49.502;11.754;2022-09-09T10:36:58;22.00;99.90
21184;DHT22;18176;49.502;11.754;2022-09-09T10:45:22;20.90;99.90
21184;DHT22;18176;49.502;11.754;2022-09-09T10:57:58;25.10;99.90
21184;DHT22;18176;49.502;11.754;2022-09-09T11:02:11;26.80;99.90
21184;DHT22;18176;49.502;11.754;2022-09-09T11:06:19;28.40;99.90
21184;DHT22;18176;49.502;11.754;2022-09-09T11:10:40;29.20;99.10
21184;DHT22;18176;49.502;11.754;2022-09-09T11:14:50;27.70;99.30
21184;DHT22;18176;49.502;11.754;2022-09-09T11:23:39;24.40;99.90
21184;DHT22;18176;49.502;11.754;2022-09-09T11:41:02;24.80;99.90
21184;DHT22;18176;49.502;11.754;2022-09-09T11:49:39;25.10;99.90
21184;DHT22;18176;49.502;11.754;2022-09-09T11:53:53;24.50;99.90
21184;DHT22;18176;49.502;11.754;2022-09-09T11:58:02;24.20;99.90
21184;DHT22;18176;49.502;11.754;2022-09-09T12:02:18;25.20;99.90
21184;DHT22;18176;49.502;11.754;2022-09-09T12:06:30;24.90;99.90
21184;DHT22;18176;49.502;11.754;2022-09-09T12:18:50;22.90;99.90
21184;DHT22;18176;49.502;11.754;2022-09-09T12:23:15;22.40;99.90
21184;DHT22;18176;49.502;11.754;2022-09-09T12:27:40;22.10;99.90
21184;DHT22;18176;49.502;11.754;2022-09-09T12:31:54;21.70;99.90
21184;DHT22;18176;49.502;11.754;2022-09-09T12:35:58;21.40;99.90
21184;DHT22;18176;49.502;11.754;2022-09-09T12:39:59;21.40;99.90
21184;DHT22;18176;49.502;11.754;2022-09-09T12:44:09;21.80;99.90
21184;DHT22;18176;49.502;11.754;2022-09-09T12:48:08;22.10;99.90
21184;DHT22;18176;49.502;11.754;2022-09-09T12:52:20;22.00;99.90
21184;DHT22;18176;49.502;11.754;2022-09-09T12:56:31;21.50;99.90
21184;DHT22;18176;49.502;11.754;2022-09-09T13:00:29;20.50;99.90
21184;DHT22;18176;49.502;11.754;2022-09-09T13:04:27;19.80;99.90
21184;DHT22;18176;49.502;11.754;2022-09-09T13:08:26;19.30;99.90
21184;DHT22;18176;49.502;11.754;2022-09-09T13:12:24;19.30;99.90
21184;DHT22;18176;49.502;11.754;2022-09-09T13:16:32;19.10;99.90
21184;DHT22;18176;49.502;11.754;2022-09-09T13:20:38;19.00;99.90
21184;DHT22;18176;49.502;11.754;2022-09-09T13:24:36;19.10;99.90
21184;DHT22;18176;49.502;11.754;2022-09-09T13:28:34;19.30;99.90
21184;DHT22;18176;49.502;11.754;2022-09-09T13:32:31;19.20;99.90
21184;DHT22;18176;49.502;11.754;2022-09-09T13:36:33;18.80;99.90
21184;DHT22;18176;49.502;11.754;2022-09-09T13:40:31;18.30;99.90
21184;DHT22;18176;49.502;11.754;2022-09-09T13:44:41;17.80;99.90
21184;DHT22;18176;49.502;11.754;2022-09-09T13:48:39;17.50;99.90
21184;DHT22;18176;49.502;11.754;2022-09-09T13:52:37;17.30;99.90
21184;DHT22;18176;49.502;11.754;2022-09-09T13:56:36;17.10;99.90
21184;DHT22;18176;49.502;11.754;2022-09-09T14:00:35;16.70;99.90
21184;DHT22;18176;49.502;11.754;2022-09-09T14:04:32;15.60;99.90
21184;DHT22;18176;49.502;11.754;2022-09-09T14:08:31;14.90;99.90
21184;DHT22;18176;49.502;11.754;2022-09-09T14:12:34;14.80;99.90
21184;DHT22;18176;49.502;11.754;2022-09-09T14:16:32;14.70;99.90
21184;DHT22;18176;49.502;11.754;2022-09-09T14:20:29;14.70;99.90
21184;DHT22;18176;49.502;11.754;2022-09-09T14:24:26;14.50;99.90
21184;DHT22;18176;49.502;11.754;2022-09-09T14:28:24;14.30;99.90
21184;DHT22;18176;49.502;11.754;2022-09-09T14:32:42;14.20;99.90
21184;DHT22;18176;49.502;11.754;2022-09-09T14:36:39;14.00;99.90
21184;DHT22;18176;49.502;11.754;2022-09-09T14:40:38;13.70;99.90
21184;DHT22;18176;49.502;11.754;2022-09-09T14:44:35;13.50;99.90
21184;DHT22;18176;49.502;11.754;2022-09-09T14:48:32;13.40;99.90
21184;DHT22;18176;49.502;11.754;2022-09-09T14:52:30;13.40;99.90
21184;DHT22;18176;49.502;11.754;2022-09-09T14:56:30;13.50;99.90
21184;DHT22;18176;49.502;11.754;2022-09-09T15:00:28;13.50;99.90
21184;DHT22;18176;49.502;11.754;2022-09-09T15:09:15;13.50;99.90
21184;DHT22;18176;49.502;11.754;2022-09-09T15:13:14;13.60;99.90
21184;DHT22;18176;49.502;11.754;2022-09-09T15:17:13;14.00;99.90
21184;DHT22;18176;49.502;11.754;2022-09-09T15:21:12;14.80;99.90
21184;DHT22;18176;49.502;11.754;2022-09-09T15:25:10;16.00;99.90
21184;DHT22;18176;49.502;11.754;2022-09-09T15:29:09;18.30;99.90
21184;DHT22;18176;49.502;11.754;2022-09-09T15:33:08;19.60;99.90
21184;DHT22;18176;49.502;11.754;2022-09-09T15:37:10;19.20;99.90
21184;DHT22;18176;49.502;11.754;2022-09-09T15:41:10;18.50;99.90
21184;DHT22;18176;49.502;11.754;2022-09-09T15:45:09;17.70;99.90
21184;DHT22;18176;49.502;11.754;2022-09-09T15:49:07;17.20;99.90
21184;DHT22;18176;49.502;11.754;2022-09-09T15:53:07;17.90;99.90
21184;DHT22;18176;49.502;11.754;2022-09-09T15:57:06;18.90;99.90
21184;DHT22;18176;49.502;11.754;2022-09-09T16:01:06;19.20;99.90
21184;DHT22;18176;49.502;11.754;2022-09-09T16:05:05;20.00;99.90
21184;DHT22;18176;49.502;11.754;2022-09-09T16:09:05;20.40;99.90
21184;DHT22;18176;49.502;11.754;2022-09-09T16:13:03;21.10;99.90
21184;DHT22;18176;49.502;11.754;2022-09-09T16:17:00;20.40;99.90
21184;DHT22;18176;49.502;11.754;2022-09-09T16:20:59;19.30;99.90
21184;DHT22;18176;49.502;11.754;2022-09-09T16:24:56;18.40;99.90
21184;DHT22;18176;49.502;11.754;2022-09-09T16:28:53;18.20;99.90
21184;DHT22;18176;49.502;11.754;2022-09-09T16:32:51;18.40;99.90
21184;DHT22;18176;49.502;11.754;2022-09-09T16:36:48;18.70;99.90
21184;DHT22;18176;49.502;11.754;2022-09-09T16:40:45;18.70;99.90
21184;DHT22;18176;49.502;11.754;2022-09-09T16:44:42;18.40;99.90
21184;DHT22;18176;49.502;11.754;2022-09-09T16:48:39;17.90;99.90
21184;DHT22;18176;49.502;11.754;2022-09-09T16:52:36;17.30;99.90
21184;DHT22;18176;49.502;11.754;2022-09-09T16:56:35;17.00;99.90
21184;DHT22;18176;49.502;11.754;2022-09-09T17:00:35;16.50;99.90
21184;DHT22;18176;49.502;11.754;2022-09-09T17:04:32;16.20;99.90
21184;DHT22;18176;49.502;11.754;2022-09-09T17:08:30;16.00;99.90
21184;DHT22;18176;49.502;11.754;2022-09-09T17:12:27;15.90;99.90
21184;DHT22;18176;49.502;11.754;2022-09-09T17:16:27;15.90;99.90
21184;DHT22;18176;49.502;11.754;2022-09-09T17:20:26;16.10;99.90
21184;DHT22;18176;49.502;11.754;2022-09-09T17:24:40;16.00;99.90
21184;DHT22;18176;49.502;11.754;2022-09-09T17:28:39;16.00;99.90
21184;DHT22;18176;49.502;11.754;2022-09-09T17:32:39;15.80;99.90
21184;DHT22;18176;49.502;11.754;2022-09-09T17:36:37;15.70;99.90
21184;DHT22;18176;49.502;11.754;2022-09-09T17:40:35;15.40;99.90
21184;DHT22;18176;49.502;11.754;2022-09-09T17:44:31;15.20;99.90
21184;DHT22;18176;49.502;11.754;2022-09-09T17:48:30;15.00;99.90
21184;DHT22;18176;49.502;11.754;2022-09-09T17:52:27;14.70;99.90
21184;DHT22;18176;49.502;11.754;2022-09-09T17:56:27;14.60;99.90
21184;DHT22;18176;49.502;11.754;2022-09-09T18:00:32;14.40;99.90
21184;DHT22;18176;49.502;11.754;2022-09-09T18:04:29;14.20;99.90
21184;DHT22;18176;49.502;11.754;2022-09-09T18:08:27;14.20;99.90
21184;DHT22;18176;49.502;11.754;2022-09-09T18:12:31;14.10;99.90
21184;DHT22;18176;49.502;11.754;2022-09-09T18:16:31;14.00;99.90
21184;DHT22;18176;49.502;11.754;2022-09-09T18:20:32;13.80;99.90
21184;DHT22;18176;49.502;11.754;2022-09-09T18:24:29;13.80;99.90
21184;DHT22;18176;49.502;11.754;2022-09-09T18:28:27;13.70;99.90
21184;DHT22;18176;49.502;11.754;2022-09-09T18:32:24;13.60;99.90
21184;DHT22;18176;49.502;11.754;2022-09-09T18:36:31;13.60;99.90
21184;DHT22;18176;49.502;11.754;2022-09-09T18:40:31;13.50;99.90
21184;DHT22;18176;49.502;11.754;2022-09-09T18:44:31;13.40;99.90
21184;DHT22;18176;49.502;11.754;2022-09-09T18:48:32;13.30;99.90
21184;DHT22;18176;49.502;11.754;2022-09-09T18:52:29;13.20;99.90
21184;DHT22;18176;49.502;11.754;2022-09-09T18:56:28;13.20;99.90
21184;DHT22;18176;49.502;11.754;2022-09-09T19:00:26;13.20;99.90
21184;DHT22;18176;49.502;11.754;2022-09-09T19:31:13;13.40;99.90
21184;DHT22;18176;49.502;11.754;2022-09-09T19:57:14;13.50;99.90
21184;DHT22;18176;49.502;11.754;2022-09-09T20:01:14;13.50;99.90
21184;DHT22;18176;49.502;11.754;2022-09-09T20:05:12;13.50;99.90
21184;DHT22;18176;49.502;11.754;2022-09-09T20:09:12;13.50;99.90
21184;DHT22;18176;49.502;11.754;2022-09-09T20:13:13;13.50;99.90
21184;DHT22;18176;49.502;11.754;2022-09-09T20:17:10;13.40;99.90
21184;DHT22;18176;49.502;11.754;2022-09-09T20:21:28;13.40;99.90
21184;DHT22;18176;49.502;11.754;2022-09-09T20:25:29;13.20;99.90
21184;DHT22;18176;49.502;11.754;2022-09-09T20:29:26;13.20;99.90
21184;DHT22;18176;49.502;11.754;2022-09-09T20:33:23;13.00;99.90
21184;DHT22;18176;49.502;11.754;2022-09-09T20:37:21;13.00;99.90
21184;DHT22;18176;49.502;11.754;2022-09-09T20:41:21;13.00;99.90
21184;DHT22;18176;49.502;11.754;2022-09-09T21:00:50;13.20;99.90
21184;DHT22;18176;49.502;11.754;2022-09-09T21:04:47;13.20;99.90
21184;DHT22;18176;49.502;11.754;2022-09-09T21:08:45;13.20;99.90
21184;DHT22;18176;49.502;11.754;2022-09-09T21:12:42;13.10;99.90
21184;DHT22;18176;49.502;11.754;2022-09-09T21:16:40;13.00;99.90
21184;DHT22;18176;49.502;11.754;2022-09-09T21:20:37;12.90;99.90
21184;DHT22;18176;49.502;11.754;2022-09-09T21:24:34;12.90;99.90
21184;DHT22;18176;49.502;11.754;2022-09-09T21:28:32;12.90;99.90
21184;DHT22;18176;49.502;11.754;2022-09-09T21:32:30;12.80;99.90
21184;DHT22;18176;49.502;11.754;2022-09-09T21:36:28;12.70;99.90
21184;DHT22;18176;49.502;11.754;2022-09-09T21:40:25;12.70;99.90
21184;DHT22;18176;49.502;11.754;2022-09-09T21:44:22;12.70;99.90
21184;DHT22;18176;49.502;11.754;2022-09-09T21:48:19;12.60;99.90
21184;DHT22;18176;49.502;11.754;2022-09-09T21:52:16;12.60;99.90
21184;DHT22;18176;49.502;11.754;2022-09-09T21:56:15;12.50;99.90
21184;DHT22;18176;49.502;11.754;2022-09-09T22:00:14;12.50;99.90
21184;DHT22;18176;49.502;11.754;2022-09-09T22:04:13;12.50;99.90
21184;DHT22;18176;49.502;11.754;2022-09-09T22:08:13;12.40;99.90
21184;DHT22;18176;49.502;11.754;2022-09-09T22:12:11;12.20;99.90
21184;DHT22;18176;49.502;11.754;2022-09-09T22:16:11;12.20;99.90
21184;DHT22;18176;49.502;11.754;2022-09-09T22:20:09;12.10;99.90
21184;DHT22;18176;49.502;11.754;2022-09-09T22:24:08;12.00;99.90
21184;DHT22;18176;49.502;11.754;2022-09-09T22:28:08;11.90;99.90
21184;DHT22;18176;49.502;11.754;2022-09-09T22:32:05;11.80;99.90
21184;DHT22;18176;49.502;11.754;2022-09-09T22:36:03;11.70;99.90
21184;DHT22;18176;49.502;11.754;2022-09-09T22:40:00;11.60;99.90
21184;DHT22;18176;49.502;11.754;2022-09-09T22:43:58;11.60;99.90
21184;DHT22;18176;49.502;11.754;2022-09-09T22:47:55;11.50;99.90
21184;DHT22;18176;49.502;11.754;2022-09-09T22:51:52;11.60;99.90
21184;DHT22;18176;49.502;11.754;2022-09-09T22:55:55;11.70;99.90
21184;DHT22;18176;49.502;11.754;2022-09-09T22:59:56;11.70;99.90
21184;DHT22;18176;49.502;11.754;2022-09-09T23:03:54;11.70;99.90
21184;DHT22;18176;49.502;11.754;2022-09-09T23:07:57;11.70;99.90
21184;DHT22;18176;49.502;11.754;2022-09-09T23:11:54;11.70;99.90
21184;DHT22;18176;49.502;11.754;2022-09-09T23:15:54;11.60;99.90
21184;DHT22;18176;49.502;11.754;2022-09-09T23:19:51;11.50;99.90
21184;DHT22;18176;49.502;11.754;2022-09-09T23:23:52;11.50;99.90
21184;DHT22;18176;49.502;11.754;2022-09-09T23:27:53;11.40;99.90
21184;DHT22;18176;49.502;11.754;2022-09-09T23:31:50;11.40;99.90
21184;DHT22;18176;49.502;11.754;2022-09-09T23:35:47;11.30;99.90
21184;DHT22;18176;49.502;11.754;2022-09-09T23:39:44;11.20;99.90
21184;DHT22;18176;49.502;11.754;2022-09-09T23:43:41;11.10;99.90
21184;DHT22;18176;49.502;11.754;2022-09-09T23:47:40;11.10;99.90
21184;DHT22;18176;49.502;11.754;2022-09-09T23:51:37;11.10;99.90
21184;DHT22;18176;49.502;11.754;2022-09-09T23:55:34;11.00;99.90
21184;DHT22;18176;49.502;11.754;2022-09-09T23:59:32;11.00;99.90
